createdAt,value
2018-08-23T00:00:36.331Z,30.17
2018-08-23T00:03:16.121Z,31.60
2018-08-23T00:05:55.359Z,30.67
2018-08-23T00:08:24.586Z,33.17
2018-08-23T00:10:54.062Z,31.50
2018-08-23T00:13:23.093Z,30.97
2018-08-23T00:15:51.855Z,30.00
2018-08-23T00:18:20.513Z,28.67
2018-08-23T00:20:49.228Z,34.73
2018-08-23T00:23:17.913Z,36.93
2018-08-23T00:25:46.609Z,34.73
2018-08-23T00:28:15.289Z,35.73
2018-08-23T00:30:44.346Z,33.90
2018-08-23T00:33:13.054Z,33.87
2018-08-23T00:35:41.721Z,33.67
2018-08-23T00:38:10.408Z,30.53
2018-08-23T00:40:42.234Z,35.40
2018-08-23T00:43:12.174Z,36.43
2018-08-23T00:45:40.821Z,32.60
2018-08-23T00:48:09.533Z,32.77
2018-08-23T00:50:56.959Z,33.20
2018-08-23T00:53:25.987Z,32.47
2018-08-23T00:56:10.462Z,34.10
2018-08-23T00:58:41.419Z,32.33
2018-08-23T01:01:13.018Z,35.43
2018-08-23T01:03:41.902Z,32.43
2018-08-23T01:06:10.589Z,34.27
2018-08-23T01:08:39.332Z,33.17
2018-08-23T01:11:09.178Z,30.27
2018-08-23T01:13:37.897Z,31.30
2018-08-23T01:16:06.558Z,30.23
2018-08-23T01:18:41.555Z,30.00
2018-08-23T01:21:11.035Z,30.67
2018-08-23T01:23:40.386Z,28.37
2018-08-23T01:26:09.492Z,30.30
2018-08-23T01:28:38.233Z,30.77
2018-08-23T01:31:23.554Z,32.10
2018-08-23T01:33:58.660Z,35.90
2018-08-23T01:36:31.266Z,35.47
2018-08-23T01:39:00.768Z,33.77
2018-08-23T01:41:29.401Z,32.60
2018-08-23T01:43:58.036Z,32.83
2018-08-23T01:46:30.888Z,34.77
2018-08-23T01:48:59.694Z,33.43
2018-08-23T01:51:28.367Z,34.03
2018-08-23T01:53:57.001Z,34.27
2018-08-23T01:56:25.665Z,33.97
2018-08-23T01:58:54.366Z,34.87
2018-08-23T02:01:23.095Z,32.93
2018-08-23T02:03:51.851Z,40.10
2018-08-23T02:06:20.591Z,43.53
2018-08-23T02:08:49.213Z,47.30
2018-08-23T02:11:17.890Z,41.43
2018-08-23T02:13:48.684Z,49.17
2018-08-23T02:16:17.333Z,46.40
2018-08-23T02:18:46.014Z,38.73
2018-08-23T02:21:14.673Z,37.70
2018-08-23T02:23:46.562Z,36.63
2018-08-23T02:26:15.412Z,37.63
2018-08-23T02:28:48.844Z,41.03
2018-08-23T02:31:17.837Z,42.90
2018-08-23T02:33:46.546Z,41.07
2018-08-23T02:36:18.591Z,41.33
2018-08-23T02:41:02.658Z,42.33
2018-08-23T02:43:31.355Z,44.53
2018-08-23T02:46:03.034Z,52.30
2018-08-23T02:48:31.719Z,50.83
2018-08-23T02:51:00.393Z,43.63
2018-08-23T02:53:35.147Z,44.87
2018-08-23T02:56:09.140Z,45.17
2018-08-23T02:59:06.108Z,42.13
2018-08-23T03:01:36.368Z,42.80
2018-08-23T03:04:12.840Z,50.20
2018-08-23T03:07:13.086Z,43.93
2018-08-23T03:09:43.618Z,46.67
2018-08-23T03:12:16.437Z,49.07
2018-08-23T03:14:45.138Z,54.07
2018-08-23T03:17:23.708Z,64.87
2018-08-23T03:20:02.025Z,63.00
2018-08-23T03:22:31.884Z,48.77
2018-08-23T03:25:02.572Z,45.37
2018-08-23T03:27:31.764Z,49.57
2018-08-23T03:30:01.230Z,45.27
2018-08-23T03:32:30.056Z,41.87
2018-08-23T03:34:59.338Z,49.73
2018-08-23T03:37:28.071Z,51.20
2018-08-23T03:39:56.908Z,47.80
2018-08-23T03:42:25.984Z,57.60
2018-08-23T03:44:55.615Z,50.03
2018-08-23T03:47:24.565Z,49.60
2018-08-23T03:49:53.258Z,48.13
2018-08-23T03:52:39.698Z,46.53
2018-08-23T03:55:09.400Z,51.70
2018-08-23T03:57:43.536Z,53.77
2018-08-23T04:00:12.301Z,52.27
2018-08-23T04:02:40.949Z,53.73
2018-08-23T04:05:14.971Z,52.57
2018-08-23T04:07:44.535Z,52.80
2018-08-23T04:10:13.192Z,48.40
2018-08-23T04:12:43.102Z,52.27
2018-08-23T04:15:29.526Z,52.70
2018-08-23T04:17:58.209Z,84.00
2018-08-23T04:20:27.000Z,53.07
2018-08-23T04:22:55.781Z,59.73
2018-08-23T04:25:24.460Z,46.07
2018-08-23T04:27:53.096Z,46.00
2018-08-23T04:30:21.806Z,48.90
2018-08-23T04:32:50.467Z,49.50
2018-08-23T04:35:34.787Z,51.10
2018-08-23T04:38:03.431Z,57.07
2018-08-23T04:40:32.163Z,52.73
2018-08-23T04:43:00.843Z,86.13
2018-08-23T04:45:31.514Z,124.77
2018-08-23T04:48:06.328Z,103.77
2018-08-23T04:50:35.193Z,95.30
2018-08-23T04:53:03.947Z,97.63
2018-08-23T04:55:32.608Z,114.63
2018-08-23T04:58:02.251Z,107.93
2018-08-23T05:00:31.348Z,91.87
2018-08-23T05:03:00.021Z,95.20
2018-08-23T05:05:28.711Z,78.97
2018-08-23T05:07:57.436Z,86.70
2018-08-23T05:10:26.156Z,93.33
2018-08-23T05:12:54.797Z,100.23
2018-08-23T05:15:23.500Z,105.20
2018-08-23T05:17:52.133Z,86.13
2018-08-23T05:20:20.804Z,87.77
2018-08-23T05:22:54.985Z,81.37
2018-08-23T05:25:24.249Z,79.97
2018-08-23T05:28:19.936Z,92.93
2018-08-23T05:30:49.372Z,100.43
2018-08-23T05:33:19.267Z,87.37
2018-08-23T05:35:48.123Z,80.13
2018-08-23T05:38:17.607Z,66.03
2018-08-23T05:40:51.065Z,57.17
2018-08-23T05:43:19.898Z,52.80
2018-08-23T05:45:49.969Z,46.97
2018-08-23T05:48:31.733Z,55.67
2018-08-23T05:51:07.690Z,50.50
2018-08-23T05:53:46.731Z,67.03
2018-08-23T05:56:15.540Z,73.07
2018-08-23T05:58:44.185Z,72.40
2018-08-23T06:01:12.921Z,72.17
2018-08-23T06:03:41.612Z,62.87
2018-08-23T06:06:10.344Z,65.47
2018-08-23T06:08:43.350Z,61.93
2018-08-23T06:11:14.748Z,59.63
2018-08-23T06:13:43.403Z,62.40
2018-08-23T06:16:12.074Z,60.87
2018-08-23T06:18:40.810Z,63.83
2018-08-23T06:21:09.460Z,62.60
2018-08-23T06:23:57.466Z,59.97
2018-08-23T06:26:41.340Z,66.10
2018-08-23T06:29:13.302Z,62.70
2018-08-23T06:31:50.367Z,66.67
2018-08-23T06:34:19.142Z,59.53
2018-08-23T06:36:47.969Z,63.60
2018-08-23T06:39:16.676Z,64.37
2018-08-23T06:41:45.565Z,61.37
2018-08-23T06:44:14.291Z,58.70
2018-08-23T06:46:43.086Z,55.80
2018-08-23T06:49:11.744Z,63.20
2018-08-23T06:51:40.940Z,57.00
2018-08-23T06:54:09.640Z,58.87
2018-08-23T06:56:38.835Z,53.30
2018-08-23T06:59:08.596Z,57.60
2018-08-23T07:01:42.533Z,61.87
2018-08-23T07:04:14.190Z,52.10
2018-08-23T07:06:43.041Z,45.30
2018-08-23T07:09:14.880Z,58.40
2018-08-23T07:11:43.829Z,54.37
2018-08-23T07:14:19.836Z,52.60
2018-08-23T07:16:49.841Z,49.33
2018-08-23T07:19:31.880Z,51.57
2018-08-23T07:22:02.466Z,51.57
2018-08-23T07:24:40.981Z,46.20
2018-08-23T07:27:10.933Z,45.37
2018-08-23T07:29:39.621Z,43.70
2018-08-23T07:32:09.762Z,43.40
2018-08-23T07:34:38.470Z,43.13
2018-08-23T07:37:12.336Z,40.60
2018-08-23T07:39:45.171Z,40.70
2018-08-23T07:42:13.842Z,39.13
2018-08-23T07:44:42.503Z,35.30
2018-08-23T07:47:11.106Z,37.50
2018-08-23T07:49:39.775Z,34.67
2018-08-23T07:52:08.517Z,32.30
2018-08-23T07:54:37.178Z,38.57
2018-08-23T07:57:05.819Z,42.53
2018-08-23T07:59:34.575Z,36.90
2018-08-23T08:02:03.385Z,31.63
2018-08-23T08:04:32.400Z,38.37
2018-08-23T08:07:01.322Z,34.53
2018-08-23T08:09:29.938Z,34.07
2018-08-23T08:12:00.505Z,31.70
2018-08-23T08:14:37.518Z,32.53
2018-08-23T08:17:13.507Z,31.00
2018-08-23T08:19:46.349Z,35.53
2018-08-23T08:22:15.368Z,31.67
2018-08-23T08:24:44.002Z,34.13
2018-08-23T08:27:12.803Z,31.73
2018-08-23T08:29:41.445Z,31.43
2018-08-23T08:32:11.606Z,29.17
2018-08-23T08:34:44.000Z,27.37
2018-08-23T08:37:13.169Z,31.40
2018-08-23T08:39:41.882Z,31.07
2018-08-23T08:42:10.537Z,33.07
2018-08-23T08:44:39.271Z,28.93
2018-08-23T08:47:07.937Z,28.50
2018-08-23T08:49:36.612Z,26.27
2018-08-23T08:52:05.320Z,29.23
2018-08-23T08:54:33.943Z,23.87
2018-08-23T08:57:02.642Z,24.97
2018-08-23T08:59:32.838Z,26.87
2018-08-23T09:02:01.706Z,28.57
2018-08-23T09:04:35.422Z,27.97
2018-08-23T09:07:04.183Z,26.93
2018-08-23T09:09:36.014Z,23.60
2018-08-23T09:12:12.324Z,21.57
2018-08-23T09:14:43.004Z,22.57
2018-08-23T09:17:28.113Z,23.90
2018-08-23T09:20:01.567Z,25.83
2018-08-23T09:22:35.505Z,25.23
2018-08-23T09:25:05.655Z,23.70
2018-08-23T09:27:34.338Z,24.10
2018-08-23T09:30:03.141Z,23.20
2018-08-23T09:32:31.854Z,22.90
2018-08-23T09:35:02.699Z,26.97
2018-08-23T09:37:36.449Z,23.80
2018-08-23T09:40:05.614Z,22.27
2018-08-23T09:42:35.318Z,21.87
2018-08-23T09:45:13.355Z,23.23
2018-08-23T09:47:42.165Z,18.80
2018-08-23T09:50:11.045Z,19.07
2018-08-23T09:52:44.841Z,17.13
2018-08-23T09:55:14.758Z,17.07
2018-08-23T09:57:43.913Z,17.27
2018-08-23T10:00:14.669Z,16.63
2018-08-23T10:02:48.596Z,17.70
2018-08-23T10:05:22.641Z,18.93
2018-08-23T10:07:56.494Z,17.80
2018-08-23T10:10:30.355Z,16.30
2018-08-23T10:13:04.400Z,20.10
2018-08-23T10:15:38.383Z,23.33
2018-08-23T10:18:12.356Z,21.50
2018-08-23T10:20:46.716Z,22.63
2018-08-23T10:23:20.763Z,22.87
2018-08-23T10:25:50.586Z,24.10
2018-08-23T10:28:20.542Z,22.20
2018-08-23T10:30:49.494Z,21.57
2018-08-23T10:33:18.534Z,19.60
2018-08-23T10:35:49.765Z,22.20
2018-08-23T10:38:19.969Z,20.30
2018-08-23T10:40:50.008Z,19.80
2018-08-23T10:43:24.028Z,20.63
2018-08-23T10:45:53.113Z,16.20
2018-08-23T10:48:21.759Z,21.77
2018-08-23T10:50:51.307Z,17.23
2018-08-23T10:53:20.074Z,29.57
2018-08-23T10:55:48.713Z,27.77
2018-08-23T10:58:17.404Z,23.50
2018-08-23T11:00:46.030Z,21.63
2018-08-23T11:03:14.794Z,19.27
2018-08-23T11:05:43.416Z,21.23
2018-08-23T11:08:17.168Z,22.73
2018-08-23T11:10:51.245Z,19.00
2018-08-23T11:13:25.204Z,21.27
2018-08-23T11:15:59.187Z,18.53
2018-08-23T11:18:33.067Z,18.37
2018-08-23T11:21:01.749Z,22.10
2018-08-23T11:23:30.461Z,19.60
2018-08-23T11:25:59.231Z,20.93
2018-08-23T11:28:28.108Z,16.27
2018-08-23T11:31:02.641Z,12.50
2018-08-23T11:33:31.556Z,13.53
2018-08-23T11:36:00.172Z,15.33
2018-08-23T11:38:29.668Z,13.30
2018-08-23T11:40:59.201Z,12.70
2018-08-23T11:43:27.885Z,9.70
2018-08-23T11:46:01.948Z,14.03
2018-08-23T11:48:31.162Z,11.17
2018-08-23T11:51:01.042Z,10.17
2018-08-23T11:53:30.169Z,10.93
2018-08-23T11:55:58.689Z,12.57
2018-08-23T11:58:27.536Z,9.90
2018-08-23T12:01:00.440Z,12.20
2018-08-23T12:03:29.073Z,9.70
2018-08-23T12:05:57.737Z,9.03
2018-08-23T12:08:26.352Z,8.50
2018-08-23T12:10:55.174Z,10.17
2018-08-23T12:13:23.880Z,9.70
2018-08-23T12:15:52.540Z,11.13
2018-08-23T12:18:21.214Z,12.27
2018-08-23T12:20:49.828Z,10.67
2018-08-23T12:23:18.542Z,10.10
2018-08-23T12:25:47.201Z,11.93
2018-08-23T12:28:21.246Z,13.50
2018-08-23T12:30:49.942Z,11.90
2018-08-23T12:33:18.616Z,11.93
2018-08-23T12:35:47.380Z,11.30
2018-08-23T12:38:22.245Z,13.83
2018-08-23T12:40:56.196Z,14.77
2018-08-23T12:43:30.219Z,13.77
2018-08-23T12:46:03.465Z,13.40
2018-08-23T12:48:32.113Z,14.37
2018-08-23T12:51:00.766Z,12.87
2018-08-23T12:53:30.325Z,13.97
2018-08-23T12:55:58.968Z,16.00
2018-08-23T12:58:27.624Z,15.20
2018-08-23T13:00:56.266Z,16.70
2018-08-23T13:03:24.946Z,22.53
2018-08-23T13:05:53.607Z,20.73
2018-08-23T13:08:22.305Z,22.53
2018-08-23T13:10:50.928Z,20.53
2018-08-23T13:13:19.590Z,24.10
2018-08-23T13:15:48.238Z,19.37
2018-08-23T13:18:16.907Z,20.17
2018-08-23T13:20:45.557Z,22.20
2018-08-23T13:23:14.204Z,20.67
2018-08-23T13:25:48.089Z,19.50
2018-08-23T13:28:16.759Z,19.93
2018-08-23T13:30:45.403Z,21.57
2018-08-23T13:33:14.092Z,19.30
2018-08-23T13:35:42.724Z,16.57
2018-08-23T13:38:11.376Z,14.70
2018-08-23T13:40:39.980Z,13.70
2018-08-23T13:43:08.680Z,19.97
2018-08-23T13:45:37.335Z,15.17
2018-08-23T13:48:06.132Z,13.47
2018-08-23T13:50:34.745Z,15.70
2018-08-23T13:53:03.437Z,13.67
2018-08-23T13:55:32.150Z,22.27
2018-08-23T13:58:00.897Z,13.03
2018-08-23T14:00:34.911Z,14.10
2018-08-23T14:03:03.622Z,11.43
2018-08-23T14:05:32.266Z,9.47
2018-08-23T14:08:00.883Z,9.93
2018-08-23T14:10:29.553Z,10.17
2018-08-23T14:12:58.201Z,10.63
2018-08-23T14:15:32.081Z,9.27
2018-08-23T14:18:00.768Z,11.33
2018-08-23T14:20:29.466Z,11.00
2018-08-23T14:22:58.094Z,8.73
2018-08-23T14:25:26.750Z,12.73
2018-08-23T14:27:55.482Z,9.17
2018-08-23T14:30:24.166Z,11.10
2018-08-23T14:32:52.811Z,11.10
2018-08-23T14:35:21.514Z,7.97
2018-08-23T14:37:50.156Z,7.57
2018-08-23T14:40:18.823Z,8.63
2018-08-23T14:42:47.534Z,8.10
2018-08-23T14:45:20.372Z,7.90
2018-08-23T14:47:54.215Z,7.43
2018-08-23T14:50:22.865Z,9.63
2018-08-23T14:52:51.509Z,6.30
2018-08-23T14:55:25.603Z,6.93
2018-08-23T14:57:54.249Z,9.30
2018-08-23T15:00:22.916Z,7.50
2018-08-23T15:02:51.604Z,8.33
2018-08-23T15:05:20.218Z,6.87
2018-08-23T15:07:48.927Z,6.97
2018-08-23T15:10:17.589Z,10.10
2018-08-23T15:12:46.253Z,9.93
2018-08-23T15:15:14.935Z,14.50
2018-08-23T15:17:43.582Z,14.17
2018-08-23T15:20:12.288Z,17.97
2018-08-23T15:22:41.007Z,11.97
2018-08-23T15:25:09.633Z,14.00
2018-08-23T15:27:38.250Z,13.07
2018-08-23T15:30:06.972Z,16.47
2018-08-23T15:32:35.640Z,12.83
2018-08-23T15:35:04.367Z,14.60
2018-08-23T15:37:33.033Z,13.03
2018-08-23T15:40:01.787Z,13.37
2018-08-23T15:42:30.542Z,15.23
2018-08-23T15:44:59.276Z,13.33
2018-08-23T15:47:27.960Z,14.50
2018-08-23T15:49:57.461Z,13.80
2018-08-23T15:52:26.375Z,13.37
2018-08-23T15:54:55.168Z,15.83
2018-08-23T15:57:23.783Z,10.33
2018-08-23T15:59:52.446Z,15.47
2018-08-23T16:04:49.793Z,13.03
2018-08-23T16:07:18.456Z,11.70
2018-08-23T16:09:47.233Z,10.80
2018-08-23T16:12:15.954Z,13.57
2018-08-23T16:14:44.686Z,12.87
2018-08-23T16:17:18.706Z,10.10
2018-08-23T16:19:52.787Z,12.27
2018-08-23T16:22:21.509Z,11.20
2018-08-23T16:24:50.213Z,12.77
2018-08-23T16:27:18.860Z,11.70
2018-08-23T16:29:49.826Z,10.73
2018-08-23T16:32:23.836Z,10.83
2018-08-23T16:34:52.624Z,9.93
2018-08-23T16:37:21.366Z,11.77
2018-08-23T16:39:50.047Z,11.63
2018-08-23T16:42:24.965Z,11.10
2018-08-23T16:44:53.629Z,11.83
2018-08-23T16:47:22.310Z,12.17
2018-08-23T16:49:50.945Z,12.57
2018-08-23T16:52:19.683Z,12.93
2018-08-23T16:54:48.365Z,12.90
2018-08-23T16:57:17.006Z,14.43
2018-08-23T16:59:45.836Z,11.63
2018-08-23T17:02:14.517Z,13.03
2018-08-23T17:04:45.228Z,14.00
2018-08-23T17:07:15.467Z,13.60
2018-08-23T17:09:44.308Z,16.67
2018-08-23T17:12:13.072Z,17.30
2018-08-23T17:14:42.384Z,14.13
2018-08-23T17:17:16.412Z,15.43
2018-08-23T17:19:45.238Z,16.63
2018-08-23T17:22:13.924Z,18.00
2018-08-23T17:24:42.706Z,15.00
2018-08-23T17:27:11.308Z,13.70
2018-08-23T17:29:40.026Z,15.03
2018-08-23T17:32:08.912Z,15.40
2018-08-23T17:34:37.589Z,14.53
2018-08-23T17:37:06.320Z,15.87
2018-08-23T17:39:35.071Z,15.50
2018-08-23T17:42:03.846Z,17.37
2018-08-23T17:44:32.844Z,14.73
2018-08-23T17:47:01.985Z,14.90
2018-08-23T17:49:30.989Z,15.57
2018-08-23T17:51:59.745Z,16.37
2018-08-23T17:54:28.457Z,14.87
2018-08-23T17:56:57.321Z,16.67
2018-08-23T17:59:26.031Z,14.13
2018-08-23T18:01:54.741Z,15.20
2018-08-23T18:04:23.388Z,16.63
2018-08-23T18:06:52.179Z,19.13
2018-08-23T18:09:20.840Z,15.83
2018-08-23T18:11:49.490Z,16.20
2018-08-23T18:14:18.298Z,14.80
2018-08-23T18:16:52.261Z,17.20
2018-08-23T18:19:20.970Z,15.13
2018-08-23T18:21:49.681Z,14.23
2018-08-23T18:24:18.357Z,15.97
2018-08-23T18:26:47.051Z,16.07
2018-08-23T18:29:15.748Z,13.90
2018-08-23T18:31:44.407Z,17.77
2018-08-23T18:34:13.153Z,16.30
2018-08-23T18:36:41.983Z,14.97
2018-08-23T18:39:11.298Z,13.67
2018-08-23T18:41:39.953Z,13.97
2018-08-23T18:44:08.642Z,13.20
2018-08-23T18:46:37.329Z,12.97
2018-08-23T18:49:06.001Z,12.37
2018-08-23T18:51:34.669Z,13.77
2018-08-23T18:54:03.448Z,11.83
2018-08-23T18:56:32.394Z,14.70
2018-08-23T18:59:01.484Z,12.00
2018-08-23T19:01:30.157Z,12.63
2018-08-23T19:03:58.877Z,14.40
2018-08-23T19:06:32.952Z,11.77
2018-08-23T19:09:01.647Z,11.40
2018-08-23T19:11:30.381Z,11.20
2018-08-23T19:13:59.122Z,11.03
2018-08-23T19:16:33.187Z,11.67
2018-08-23T19:19:02.028Z,11.50
2018-08-23T19:21:30.609Z,30.27
2018-08-23T19:23:59.420Z,11.10
2018-08-23T19:26:28.093Z,11.53
2018-08-23T19:28:56.806Z,13.57
2018-08-23T19:31:25.601Z,11.27
2018-08-23T19:33:54.306Z,11.43
2018-08-23T19:36:23.045Z,10.57
2018-08-23T19:38:51.712Z,10.67
2018-08-23T19:41:20.453Z,11.90
2018-08-23T19:43:49.251Z,11.63
2018-08-23T19:46:23.255Z,11.47
2018-08-23T19:48:57.262Z,12.40
2018-08-23T19:51:26.033Z,11.90
2018-08-23T19:53:54.862Z,13.60
2018-08-23T19:56:24.425Z,12.80
2018-08-23T19:58:55.649Z,13.07
2018-08-23T20:01:24.866Z,13.30
2018-08-23T20:03:53.738Z,13.50
2018-08-23T20:06:22.408Z,13.43
2018-08-23T20:08:51.128Z,12.23
2018-08-23T20:11:19.983Z,11.77
2018-08-23T20:13:48.740Z,11.37
2018-08-23T20:16:17.473Z,14.00
2018-08-23T20:18:46.747Z,12.67
2018-08-23T20:21:15.920Z,13.63
2018-08-23T20:23:45.102Z,14.00
2018-08-23T20:26:14.434Z,15.03
2018-08-23T20:28:43.745Z,12.73
2018-08-23T20:31:12.982Z,12.67
2018-08-23T20:33:42.174Z,14.33
2018-08-23T20:36:11.422Z,13.77
2018-08-23T20:38:40.091Z,12.03
2018-08-23T20:41:09.418Z,13.67
2018-08-23T20:43:38.666Z,14.30
2018-08-23T20:46:07.392Z,12.80
2018-08-23T20:48:36.108Z,12.70
2018-08-23T20:51:04.817Z,13.53
2018-08-23T20:53:33.822Z,12.80
2018-08-23T20:56:02.557Z,11.80
2018-08-23T20:58:31.390Z,11.73
2018-08-23T21:01:00.085Z,11.73
2018-08-23T21:03:28.773Z,12.57
2018-08-23T21:05:57.419Z,13.03
2018-08-23T21:08:26.119Z,13.40
2018-08-23T21:10:55.394Z,12.53
2018-08-23T21:13:24.240Z,14.33
2018-08-23T21:15:52.975Z,13.40
2018-08-23T21:18:23.897Z,14.07
2018-08-23T21:20:52.860Z,13.30
2018-08-23T21:23:21.540Z,12.90
2018-08-23T21:25:50.284Z,12.37
2018-08-23T21:28:19.292Z,12.20
2018-08-23T21:30:48.059Z,11.70
2018-08-23T21:33:16.759Z,11.97
2018-08-23T21:35:45.544Z,12.00
2018-08-23T21:38:15.714Z,11.27
2018-08-23T21:40:44.413Z,12.37
2018-08-23T21:43:13.069Z,12.97
2018-08-23T21:45:41.782Z,11.40
2018-08-23T21:48:10.545Z,15.17
2018-08-23T21:50:39.572Z,13.07
2018-08-23T21:53:08.421Z,11.73
2018-08-23T21:55:39.323Z,11.70
2018-08-23T21:58:09.710Z,11.93
2018-08-23T22:00:43.855Z,10.27
2018-08-23T22:03:13.381Z,10.40
2018-08-23T22:05:42.385Z,9.87
2018-08-23T22:08:11.804Z,9.67
2018-08-23T22:10:40.457Z,8.77
2018-08-23T22:13:09.154Z,8.70
2018-08-23T22:15:43.092Z,8.87
2018-08-23T22:18:12.090Z,8.53
2018-08-23T22:20:40.829Z,8.23
2018-08-23T22:23:09.775Z,9.17
2018-08-23T22:25:38.950Z,9.50
2018-08-23T22:28:08.136Z,7.07
2018-08-23T22:30:37.121Z,8.10
2018-08-23T22:33:06.038Z,10.57
2018-08-23T22:35:34.750Z,6.67
2018-08-23T22:38:03.421Z,8.37
2018-08-23T22:40:32.089Z,9.70
2018-08-23T22:43:00.772Z,7.90
2018-08-23T22:45:29.414Z,9.50
2018-08-23T22:47:58.085Z,8.57
2018-08-23T22:50:26.718Z,6.77
2018-08-23T22:52:55.488Z,7.97
2018-08-23T22:55:24.172Z,6.30
2018-08-23T22:57:52.869Z,7.20
2018-08-23T23:00:26.816Z,8.13
2018-08-23T23:02:55.550Z,6.80
2018-08-23T23:05:24.258Z,6.07
2018-08-23T23:07:52.891Z,5.67
2018-08-23T23:10:21.525Z,5.70
2018-08-23T23:12:50.226Z,6.93
2018-08-23T23:15:24.251Z,5.80
2018-08-23T23:17:52.881Z,6.70
2018-08-23T23:20:21.548Z,5.67
2018-08-23T23:22:50.187Z,5.73
2018-08-23T23:25:18.898Z,6.97
2018-08-23T23:27:47.575Z,3.87
2018-08-23T23:30:16.211Z,5.43
2018-08-23T23:32:45.173Z,4.27
2018-08-23T23:35:13.808Z,4.43
2018-08-23T23:37:42.491Z,3.67
2018-08-23T23:40:11.124Z,6.60
2018-08-23T23:42:39.830Z,3.73
2018-08-23T23:45:09.041Z,5.87
2018-08-23T23:47:37.748Z,2.90
2018-08-23T23:50:06.961Z,3.30
2018-08-23T23:52:35.636Z,4.20
2018-08-23T23:55:04.424Z,4.10
2018-08-23T23:57:33.090Z,4.33
